CTA2 weather

Sept-Îles (Hydro-Québec) Heliport
Sept-Îles, Quebec, Canada

Public forecast

Using degrees Celsius for public forecast. Weather courtesy of forecast.io.

Closest aviation weather report (METAR) to Sept-Îles (Hydro-Québec) Heliport

Closest report is Sept-Îles Airport, 6.9 nm (12.7 km) SE. Retrieved 2020/02/24 05:00 UTC (45 minutes ago):

CYZV 240500Z 06005KT 15SM OVC050 M02/M04 A3000 RMK SC8 SLP166

Closest aviation forecast (TAF) to Sept-Îles (Hydro-Québec) Heliport

Closest forecast is Sept-Îles Airport, 6.9 nm (12.7 km) SE. Retrieved 2020-02-24 00:42 UTC (5 hours ago):

TAF CYZV 232338Z 2400/2424 05004KT P6SM BKN050 TEMPO 2400/2405 4SM -SHSN BKN020 FM240500 09010G20KT 6SM -SN BR OVC010 TEMPO 2405/2412 2SM -FZDZ BR OVC005 FM241200 09018G28KT 3/4SM -SN BLSN OVC008 FM242200 09015G25KT 1/2SM -FZDZ FZFG VV002 RMK NXT FCST BY 240600Z